createdAt,value
2023-01-19T00:00:14.997Z,27.30
2023-01-19T00:02:43.520Z,25.80
2023-01-19T00:05:10.695Z,20.30
2023-01-19T00:07:37.598Z,24.40
2023-01-19T00:10:05.056Z,30.40
2023-01-19T00:12:31.941Z,27.90
2023-01-19T00:14:58.925Z,29.30
2023-01-19T00:17:25.833Z,34.10
2023-01-19T00:19:52.676Z,24.50
2023-01-19T00:22:19.473Z,25.00
2023-01-19T00:24:46.282Z,21.40
2023-01-19T00:27:13.167Z,25.60
2023-01-19T00:29:39.967Z,23.80
2023-01-19T00:32:07.132Z,16.90
2023-01-19T00:34:49.648Z,23.70
2023-01-19T00:37:17.558Z,25.80
2023-01-19T00:39:45.086Z,37.60
2023-01-19T00:42:31.914Z,27.20
2023-01-19T00:44:58.830Z,23.60
2023-01-19T00:47:25.980Z,27.30
2023-01-19T00:49:52.782Z,33.70
2023-01-19T00:52:19.755Z,26.70
2023-01-19T00:54:46.548Z,22.30
2023-01-19T00:57:13.621Z,24.10
2023-01-19T00:59:40.404Z,23.20
2023-01-19T01:02:07.512Z,19.70
2023-01-19T01:04:34.517Z,31.10
2023-01-19T01:07:01.250Z,29.30
2023-01-19T01:09:28.284Z,31.80
2023-01-19T01:11:55.094Z,19.90
2023-01-19T01:14:21.901Z,21.70
2023-01-19T01:16:48.850Z,21.60
2023-01-19T01:19:16.166Z,21.90
2023-01-19T01:21:43.114Z,23.60
2023-01-19T01:24:10.248Z,15.30
2023-01-19T01:26:37.038Z,19.90
2023-01-19T01:29:06.382Z,19.70
2023-01-19T01:31:33.186Z,26.90
2023-01-19T01:34:00.104Z,27.80
2023-01-19T01:36:29.196Z,20.30
2023-01-19T01:38:55.992Z,28.40
2023-01-19T01:41:25.450Z,23.20
2023-01-19T01:43:58.355Z,13.20
2023-01-19T01:46:26.869Z,26.70
2023-01-19T01:48:59.400Z,23.10
2023-01-19T01:51:33.346Z,14.80
2023-01-19T01:54:19.955Z,24.60
2023-01-19T01:56:49.704Z,24.00
2023-01-19T01:59:29.436Z,17.70
2023-01-19T02:02:18.781Z,19.40
2023-01-19T02:05:00.687Z,33.70
2023-01-19T02:07:51.396Z,28.30
2023-01-19T02:10:37.359Z,16.80
2023-01-19T02:13:22.607Z,19.50
2023-01-19T02:15:53.379Z,21.70
2023-01-19T02:18:22.463Z,22.10
2023-01-19T02:21:14.533Z,16.20
2023-01-19T02:23:44.664Z,16.90
2023-01-19T02:26:16.271Z,22.10
2023-01-19T02:28:48.445Z,19.10
2023-01-19T02:33:42.436Z,21.60
2023-01-19T02:36:12.633Z,16.70
2023-01-19T02:38:42.080Z,23.30
2023-01-19T02:41:11.393Z,14.90
2023-01-19T02:43:39.066Z,16.00
2023-01-19T02:46:06.123Z,19.70
2023-01-19T02:48:32.971Z,17.90
2023-01-19T02:51:12.734Z,16.70
2023-01-19T02:54:02.616Z,20.70
2023-01-19T02:56:29.353Z,22.60
2023-01-19T02:59:06.259Z,16.90
2023-01-19T03:01:56.829Z,36.10
2023-01-19T03:04:26.708Z,19.40
2023-01-19T03:07:14.577Z,21.20
2023-01-19T03:09:52.762Z,20.70
2023-01-19T03:12:32.755Z,25.70
2023-01-19T03:15:06.013Z,20.60
2023-01-19T03:17:34.656Z,17.50
2023-01-19T03:20:03.840Z,24.60
2023-01-19T03:22:32.393Z,24.10
2023-01-19T03:25:01.778Z,18.30
2023-01-19T03:27:32.776Z,19.00
2023-01-19T03:30:05.438Z,19.60
2023-01-19T03:32:37.995Z,28.70
2023-01-19T03:35:11.849Z,18.90
2023-01-19T03:37:44.170Z,15.40
2023-01-19T03:40:12.071Z,18.60
2023-01-19T03:42:40.847Z,30.70
2023-01-19T03:45:09.233Z,24.20
2023-01-19T03:47:36.617Z,23.40
2023-01-19T03:50:09.011Z,31.10
2023-01-19T03:52:35.797Z,29.80
2023-01-19T03:55:04.593Z,20.60
2023-01-19T03:57:31.747Z,21.90
2023-01-19T03:59:58.548Z,23.00
2023-01-19T04:02:25.609Z,25.90
2023-01-19T04:04:52.498Z,19.80
2023-01-19T04:07:19.322Z,28.10
2023-01-19T04:09:46.125Z,24.50
2023-01-19T04:12:12.951Z,24.20
2023-01-19T04:14:39.755Z,35.50
2023-01-19T04:17:06.605Z,27.50
2023-01-19T04:19:33.458Z,25.60
2023-01-19T04:22:00.642Z,31.50
2023-01-19T04:24:28.095Z,30.00
2023-01-19T04:26:54.892Z,39.00
2023-01-19T04:29:21.678Z,44.30
2023-01-19T04:31:48.524Z,32.60
2023-01-19T04:34:15.402Z,33.20
2023-01-19T04:36:42.153Z,37.00
2023-01-19T04:39:09.263Z,48.10
2023-01-19T04:41:36.096Z,38.10
2023-01-19T04:44:03.336Z,38.50
2023-01-19T04:46:30.125Z,36.40
2023-01-19T04:48:57.005Z,40.20
2023-01-19T04:51:23.939Z,38.40
2023-01-19T04:53:50.787Z,40.10
2023-01-19T04:56:17.510Z,34.30
2023-01-19T04:58:44.408Z,36.00
2023-01-19T05:01:11.284Z,41.10
2023-01-19T05:03:38.141Z,30.50
2023-01-19T05:06:05.000Z,33.70
2023-01-19T05:08:31.795Z,38.40
2023-01-19T05:10:58.593Z,37.10
2023-01-19T05:13:26.245Z,41.60
2023-01-19T05:15:53.129Z,33.90
2023-01-19T05:18:19.951Z,29.70
2023-01-19T05:20:47.056Z,32.60
2023-01-19T05:23:13.847Z,33.60
2023-01-19T05:25:40.637Z,37.20
2023-01-19T05:28:07.705Z,26.40
2023-01-19T05:30:34.599Z,46.90
2023-01-19T05:33:01.726Z,33.90
2023-01-19T05:35:35.768Z,33.70
2023-01-19T05:38:03.349Z,38.50
2023-01-19T05:40:30.174Z,43.70
2023-01-19T05:43:01.142Z,50.90
2023-01-19T05:45:28.684Z,32.40
2023-01-19T05:47:55.848Z,33.30
2023-01-19T05:50:22.760Z,44.00
2023-01-19T05:52:49.643Z,38.00
2023-01-19T05:55:16.641Z,46.70
2023-01-19T05:57:43.655Z,46.10
2023-01-19T06:00:11.008Z,39.90
2023-01-19T06:02:40.023Z,44.40
2023-01-19T06:05:07.107Z,44.00
2023-01-19T06:07:33.967Z,35.90
2023-01-19T06:10:01.292Z,40.60
2023-01-19T06:12:28.290Z,30.70
2023-01-19T06:14:55.039Z,37.80
2023-01-19T06:17:21.857Z,33.90
2023-01-19T06:19:48.762Z,45.70
2023-01-19T06:22:15.840Z,28.70
2023-01-19T06:24:42.801Z,37.80
2023-01-19T06:27:09.664Z,33.60
2023-01-19T06:29:36.779Z,44.20
2023-01-19T06:32:03.747Z,37.50
2023-01-19T06:34:30.518Z,43.00
2023-01-19T06:36:57.857Z,38.80
2023-01-19T06:39:24.745Z,38.20
2023-01-19T06:41:51.943Z,45.40
2023-01-19T06:44:18.709Z,39.90
2023-01-19T06:46:45.615Z,43.50
2023-01-19T06:49:12.385Z,42.60
2023-01-19T06:51:39.203Z,39.10
2023-01-19T06:54:06.134Z,32.30
2023-01-19T06:56:33.037Z,50.40
2023-01-19T06:58:59.779Z,45.80
2023-01-19T07:01:27.145Z,58.80
2023-01-19T07:03:54.607Z,44.10
2023-01-19T07:06:21.443Z,34.10
2023-01-19T07:08:48.247Z,33.30
2023-01-19T07:11:24.721Z,44.90
2023-01-19T07:16:24.015Z,43.50
2023-01-19T07:18:51.161Z,31.00
2023-01-19T07:21:18.459Z,47.00
2023-01-19T07:23:48.630Z,33.90
2023-01-19T07:26:18.621Z,29.40
2023-01-19T07:28:47.359Z,67.40
2023-01-19T07:31:15.772Z,42.10
2023-01-19T07:33:42.709Z,45.20
2023-01-19T07:36:09.852Z,35.80
2023-01-19T07:38:36.666Z,39.90
2023-01-19T07:41:09.728Z,36.30
2023-01-19T07:43:36.680Z,34.70
2023-01-19T07:46:05.784Z,41.80
2023-01-19T07:48:32.738Z,37.40
2023-01-19T07:51:17.990Z,37.70
2023-01-19T07:53:45.709Z,37.90
2023-01-19T07:56:12.675Z,37.40
2023-01-19T07:58:40.161Z,34.40
2023-01-19T08:01:12.696Z,42.80
2023-01-19T08:03:40.050Z,35.60
2023-01-19T08:06:07.446Z,35.60
2023-01-19T08:08:34.613Z,35.40
2023-01-19T08:11:01.401Z,50.20
2023-01-19T08:13:28.240Z,44.00
2023-01-19T08:15:55.453Z,46.20
2023-01-19T08:18:22.281Z,39.30
2023-01-19T08:20:49.177Z,29.50
2023-01-19T08:23:18.159Z,46.20
2023-01-19T08:25:46.040Z,37.20
2023-01-19T08:28:15.894Z,42.00
2023-01-19T08:30:45.565Z,38.30
2023-01-19T08:33:13.868Z,40.60
2023-01-19T08:35:42.392Z,33.40
2023-01-19T08:38:10.492Z,53.50
2023-01-19T08:40:39.440Z,49.40
2023-01-19T08:43:09.528Z,61.20
2023-01-19T08:45:46.700Z,53.80
2023-01-19T08:48:18.516Z,40.00
2023-01-19T08:50:49.524Z,33.30
2023-01-19T08:55:43.630Z,33.50
2023-01-19T08:58:10.652Z,30.30
2023-01-19T09:00:38.991Z,34.40
2023-01-19T09:03:07.701Z,44.40
2023-01-19T09:05:37.427Z,29.00
2023-01-19T09:08:11.430Z,27.30
2023-01-19T09:10:39.185Z,40.70
2023-01-19T09:13:08.683Z,45.90
2023-01-19T09:15:37.850Z,25.40
2023-01-19T09:18:08.046Z,28.00
2023-01-19T09:20:36.307Z,26.70
2023-01-19T09:23:03.228Z,33.10
2023-01-19T09:25:30.490Z,23.70
2023-01-19T09:28:00.026Z,29.30
2023-01-19T09:30:27.898Z,28.20
2023-01-19T09:32:54.922Z,22.30
2023-01-19T09:35:21.734Z,21.60
2023-01-19T09:37:48.726Z,23.80
2023-01-19T09:40:18.977Z,26.40
2023-01-19T09:42:55.865Z,28.30
2023-01-19T09:45:39.892Z,16.60
2023-01-19T09:48:35.934Z,30.80
2023-01-19T09:51:07.767Z,19.20
2023-01-19T09:56:20.252Z,18.10
2023-01-19T09:58:48.767Z,24.90
2023-01-19T10:01:21.494Z,26.90
2023-01-19T10:03:53.637Z,31.40
2023-01-19T10:06:21.824Z,20.60
2023-01-19T10:09:05.420Z,25.10
2023-01-19T10:11:54.508Z,26.50
2023-01-19T10:14:30.714Z,20.50
2023-01-19T10:17:23.602Z,24.30
2023-01-19T10:19:56.688Z,18.60
2023-01-19T10:22:26.897Z,23.10
2023-01-19T10:24:57.242Z,18.70
2023-01-19T10:27:30.773Z,23.00
2023-01-19T10:29:59.138Z,24.90
2023-01-19T10:32:30.482Z,17.70
2023-01-19T10:34:59.894Z,20.90
2023-01-19T10:37:34.344Z,29.10
2023-01-19T10:40:03.376Z,22.60
2023-01-19T10:42:30.988Z,13.40
2023-01-19T10:44:57.994Z,15.40
2023-01-19T10:47:34.079Z,13.50
2023-01-19T10:50:22.840Z,18.10
2023-01-19T10:52:52.605Z,18.30
2023-01-19T10:55:34.395Z,19.80
2023-01-19T10:58:02.169Z,17.80
2023-01-19T11:00:29.027Z,15.00
2023-01-19T11:02:56.015Z,19.30
2023-01-19T11:05:31.194Z,19.40
2023-01-19T11:07:58.573Z,16.90
2023-01-19T11:10:26.478Z,25.10
2023-01-19T11:13:01.872Z,17.50
2023-01-19T11:15:48.400Z,18.10
2023-01-19T11:18:30.272Z,16.90
2023-01-19T11:21:03.798Z,20.40
2023-01-19T11:23:47.199Z,7.90
2023-01-19T11:26:24.724Z,15.20
2023-01-19T11:28:54.843Z,21.20
2023-01-19T11:31:27.776Z,13.30
2023-01-19T11:34:06.678Z,16.90
2023-01-19T11:36:36.946Z,12.00
2023-01-19T11:39:12.548Z,14.30
2023-01-19T11:41:41.804Z,19.20
2023-01-19T11:44:36.878Z,16.20
2023-01-19T11:47:12.569Z,15.00
2023-01-19T11:49:59.880Z,17.70
2023-01-19T11:52:43.142Z,11.70
2023-01-19T11:55:25.433Z,13.70
2023-01-19T12:00:39.639Z,13.70
2023-01-19T12:03:09.626Z,13.60
2023-01-19T12:05:40.894Z,17.20
2023-01-19T12:08:14.552Z,16.90
2023-01-19T12:10:45.549Z,14.90
2023-01-19T12:13:26.655Z,9.20
2023-01-19T12:15:59.989Z,10.80
2023-01-19T12:18:35.689Z,16.00
2023-01-19T12:21:04.183Z,12.20
2023-01-19T12:23:57.988Z,13.00
2023-01-19T12:26:33.574Z,19.10
2023-01-19T12:29:24.143Z,10.50
2023-01-19T12:32:18.237Z,12.70
2023-01-19T12:34:46.870Z,9.30
2023-01-19T12:37:32.449Z,10.40
2023-01-19T12:40:28.675Z,13.50
2023-01-19T12:42:57.701Z,10.70
2023-01-19T12:45:29.472Z,13.20
2023-01-19T12:47:56.827Z,10.10
2023-01-19T12:50:26.061Z,8.20
2023-01-19T12:52:58.504Z,12.20
2023-01-19T12:55:31.540Z,17.60
2023-01-19T12:58:03.767Z,7.30
2023-01-19T13:00:36.891Z,6.50
2023-01-19T13:03:05.093Z,9.90
2023-01-19T13:05:33.286Z,6.90
2023-01-19T13:08:03.243Z,9.90
2023-01-19T13:10:54.775Z,7.90
2023-01-19T13:13:24.598Z,12.00
2023-01-19T13:15:55.456Z,13.20
2023-01-19T13:18:32.030Z,11.70
2023-01-19T13:21:01.015Z,11.00
2023-01-19T13:23:51.793Z,8.60
2023-01-19T13:26:21.376Z,21.00
2023-01-19T13:28:55.086Z,11.60
2023-01-19T13:31:23.881Z,8.10
2023-01-19T13:33:54.821Z,10.90
2023-01-19T13:36:27.306Z,12.00
2023-01-19T13:38:55.539Z,11.60
2023-01-19T13:41:25.289Z,14.70
2023-01-19T13:44:01.751Z,5.90
2023-01-19T13:46:30.459Z,9.10
2023-01-19T13:49:04.586Z,10.00
2023-01-19T13:51:31.425Z,12.20
2023-01-19T13:53:59.919Z,10.30
2023-01-19T13:56:28.598Z,5.70
2023-01-19T13:58:59.553Z,14.60
2023-01-19T14:01:29.256Z,8.90
2023-01-19T14:03:56.906Z,8.10
2023-01-19T14:06:31.176Z,7.80
2023-01-19T14:09:16.755Z,11.20
2023-01-19T14:12:07.466Z,22.30
2023-01-19T14:14:34.468Z,7.40
2023-01-19T14:17:01.357Z,7.80
2023-01-19T14:19:28.731Z,7.90
2023-01-19T14:22:03.918Z,6.50
2023-01-19T14:24:33.411Z,5.10
2023-01-19T14:27:22.832Z,9.00
2023-01-19T14:29:53.803Z,7.90
2023-01-19T14:32:25.268Z,7.40
2023-01-19T14:35:05.242Z,6.00
2023-01-19T14:37:35.844Z,5.50
2023-01-19T14:40:04.889Z,7.10
2023-01-19T14:42:45.350Z,9.10
2023-01-19T14:45:30.471Z,5.50
2023-01-19T14:48:00.790Z,6.70
2023-01-19T14:50:34.461Z,7.40
2023-01-19T14:53:05.292Z,11.10
2023-01-19T14:55:54.396Z,5.00
2023-01-19T14:58:24.855Z,12.10
2023-01-19T15:00:55.739Z,4.10
2023-01-19T15:03:32.036Z,8.30
2023-01-19T15:06:14.831Z,6.80
2023-01-19T15:08:42.343Z,6.20
2023-01-19T15:11:23.169Z,4.60
2023-01-19T15:13:54.906Z,5.70
2023-01-19T15:17:10.110Z,3.70
2023-01-19T15:19:46.968Z,7.40
2023-01-19T15:22:16.702Z,14.40
2023-01-19T15:24:43.671Z,6.00
2023-01-19T15:27:13.435Z,12.30
2023-01-19T15:29:40.519Z,6.70
2023-01-19T15:32:15.021Z,6.60
2023-01-19T15:34:42.332Z,5.90
2023-01-19T15:37:09.670Z,8.20
2023-01-19T15:39:36.710Z,6.90
2023-01-19T15:42:04.072Z,5.40
2023-01-19T15:44:31.094Z,8.90
2023-01-19T15:47:01.309Z,7.30
2023-01-19T15:49:28.359Z,6.40
2023-01-19T15:52:00.921Z,4.40
2023-01-19T15:54:27.839Z,6.60
2023-01-19T15:56:57.330Z,3.20
2023-01-19T15:59:24.347Z,3.70
2023-01-19T16:01:51.479Z,11.40
2023-01-19T16:04:19.131Z,5.00
2023-01-19T16:06:46.062Z,5.50
2023-01-19T16:09:18.491Z,8.40
2023-01-19T16:11:46.198Z,4.00
2023-01-19T16:14:13.022Z,19.80
2023-01-19T16:16:39.991Z,5.40
2023-01-19T16:19:07.044Z,10.60
2023-01-19T16:21:33.908Z,5.00
2023-01-19T16:24:00.853Z,7.60
2023-01-19T16:26:32.321Z,5.10
2023-01-19T16:29:02.028Z,4.20
2023-01-19T16:31:29.612Z,4.10
2023-01-19T16:33:56.573Z,7.10
2023-01-19T16:36:28.932Z,3.30
2023-01-19T16:38:59.759Z,5.80
2023-01-19T16:41:27.245Z,3.30
2023-01-19T16:43:55.887Z,2.50
2023-01-19T16:46:28.206Z,3.60
2023-01-19T16:48:59.602Z,2.80
2023-01-19T16:51:26.418Z,7.90
2023-01-19T16:53:54.308Z,6.30
2023-01-19T16:56:21.545Z,3.50
2023-01-19T16:58:48.454Z,2.20
2023-01-19T17:01:20.032Z,3.60
2023-01-19T17:03:47.592Z,3.60
2023-01-19T17:06:20.514Z,6.50
2023-01-19T17:08:47.738Z,4.00
2023-01-19T17:11:20.999Z,1.90
2023-01-19T17:13:49.469Z,3.40
2023-01-19T17:16:16.818Z,3.80
2023-01-19T17:18:43.989Z,3.70
2023-01-19T17:21:11.078Z,3.50
2023-01-19T17:23:42.596Z,2.20
2023-01-19T17:26:09.722Z,6.70
2023-01-19T17:28:37.277Z,4.20
2023-01-19T17:33:34.552Z,5.50
2023-01-19T17:36:07.012Z,10.20
2023-01-19T17:38:36.663Z,6.70
2023-01-19T17:41:12.756Z,2.90
2023-01-19T17:43:39.801Z,3.00
2023-01-19T17:46:06.598Z,5.00
2023-01-19T17:48:33.355Z,2.80
2023-01-19T17:51:12.125Z,1.90
2023-01-19T17:53:43.205Z,5.60
2023-01-19T17:56:15.000Z,3.40
2023-01-19T17:58:43.041Z,6.60
2023-01-19T18:02:12.250Z,2.70
2023-01-19T18:04:49.366Z,6.50
2023-01-19T18:07:16.480Z,7.20
2023-01-19T18:09:43.433Z,5.50
2023-01-19T18:12:13.185Z,5.00
2023-01-19T18:14:41.991Z,4.40
2023-01-19T18:17:09.103Z,7.40
2023-01-19T18:19:37.519Z,4.50
2023-01-19T18:26:30.083Z,4.20
2023-01-19T18:29:03.953Z,7.00
2023-01-19T18:31:32.867Z,5.50
2023-01-19T18:34:00.196Z,8.90
2023-01-19T18:36:32.748Z,3.10
2023-01-19T18:39:03.467Z,5.30
2023-01-19T18:41:35.649Z,3.10
2023-01-19T18:44:03.357Z,2.70
2023-01-19T18:46:30.486Z,5.20
2023-01-19T18:48:57.697Z,2.60
2023-01-19T18:53:01.446Z,3.70
2023-01-19T19:40:24.946Z,3.30
2023-01-19T19:42:52.190Z,1.90
2023-01-19T19:45:19.642Z,2.10
2023-01-19T19:56:01.056Z,3.50
2023-01-19T19:58:29.158Z,1.20
2023-01-19T20:00:56.810Z,2.00
2023-01-19T20:03:27.484Z,3.00
2023-01-19T20:05:54.466Z,2.20
2023-01-19T20:08:21.623Z,1.00
2023-01-19T20:10:48.911Z,2.60
2023-01-19T20:13:19.329Z,2.00
2023-01-19T20:15:46.365Z,2.50
2023-01-19T20:18:13.666Z,3.00
2023-01-19T20:20:40.658Z,5.10
2023-01-19T20:23:07.659Z,2.30
2023-01-19T20:25:39.971Z,2.40
2023-01-19T20:28:06.898Z,1.70
2023-01-19T20:30:34.352Z,3.10
2023-01-19T20:33:02.650Z,1.30
2023-01-19T20:35:29.621Z,1.50
2023-01-19T20:37:56.804Z,2.50
2023-01-19T20:40:23.902Z,1.60
2023-01-19T20:42:50.901Z,3.50
2023-01-19T20:45:19.047Z,4.50
2023-01-19T20:47:45.979Z,1.80
2023-01-19T20:50:12.875Z,3.90
2023-01-19T20:52:39.694Z,3.00
2023-01-19T20:55:08.998Z,3.40
2023-01-19T20:57:35.937Z,2.30
2023-01-19T21:00:02.809Z,3.30
2023-01-19T21:02:30.545Z,1.60
2023-01-19T21:04:57.396Z,2.90
2023-01-19T21:07:24.177Z,0.40
2023-01-19T21:09:51.040Z,1.50
2023-01-19T21:12:17.956Z,3.80
2023-01-19T21:14:46.087Z,1.90
2023-01-19T21:17:12.973Z,1.90
2023-01-19T21:19:39.870Z,2.10
2023-01-19T21:22:06.684Z,3.40
2023-01-19T21:24:33.488Z,3.10
2023-01-19T21:27:00.397Z,3.00
2023-01-19T21:29:27.282Z,2.70
2023-01-19T21:31:54.212Z,3.00
2023-01-19T21:34:21.216Z,1.90
2023-01-19T21:36:48.121Z,1.80
2023-01-19T21:39:17.231Z,2.40
2023-01-19T21:41:45.301Z,2.80
2023-01-19T21:50:57.843Z,1.60
2023-01-19T21:53:24.773Z,2.20
2023-01-19T21:55:51.610Z,2.50
2023-01-19T21:58:18.428Z,1.10
2023-01-19T22:00:45.609Z,2.30
2023-01-19T22:03:12.578Z,1.10
2023-01-19T22:05:39.461Z,1.90
2023-01-19T22:08:06.682Z,2.40
2023-01-19T22:10:38.004Z,1.50
2023-01-19T22:13:09.648Z,1.80
2023-01-19T22:15:36.577Z,1.10
2023-01-19T22:18:03.615Z,0.90
2023-01-19T22:20:30.464Z,0.70
2023-01-19T22:22:57.348Z,0.60
2023-01-19T22:25:27.819Z,1.60
2023-01-19T22:27:55.872Z,1.00
2023-01-19T22:30:22.763Z,0.80
2023-01-19T22:32:49.711Z,1.20
2023-01-19T22:35:16.675Z,3.60
2023-01-19T22:37:43.585Z,2.50
2023-01-19T22:40:11.908Z,3.70
2023-01-19T22:42:38.774Z,3.90
2023-01-19T22:45:06.103Z,3.90
2023-01-19T22:47:32.998Z,4.70
2023-01-19T22:49:59.845Z,6.30
2023-01-19T22:52:26.684Z,5.90
2023-01-19T22:54:56.495Z,7.50
2023-01-19T22:57:23.923Z,4.40
2023-01-19T22:59:50.764Z,5.10
2023-01-19T23:02:19.788Z,4.30
2023-01-19T23:04:47.749Z,4.20
2023-01-19T23:07:14.617Z,3.50
2023-01-19T23:09:41.514Z,4.20
2023-01-19T23:12:08.388Z,4.60
2023-01-19T23:14:36.360Z,6.90
2023-01-19T23:17:04.965Z,4.40
2023-01-19T23:19:31.793Z,4.90
2023-01-19T23:21:58.583Z,6.20
2023-01-19T23:24:25.687Z,5.10
2023-01-19T23:26:52.589Z,4.80
2023-01-19T23:29:19.990Z,3.90
2023-01-19T23:31:49.608Z,2.80
2023-01-19T23:34:17.088Z,5.90
2023-01-19T23:36:44.753Z,5.90
2023-01-19T23:39:20.877Z,5.60
2023-01-19T23:41:48.381Z,4.80
2023-01-19T23:44:15.802Z,15.20
2023-01-19T23:46:44.095Z,2.60
2023-01-19T23:49:11.967Z,3.40
2023-01-19T23:51:40.847Z,1.80
2023-01-19T23:54:08.005Z,1.50
2023-01-19T23:56:37.572Z,1.40
2023-01-19T23:59:07.168Z,2.00
